This is the latest recevied weather packets stored in our database for station/object W4DEX-2. If no packets are shown the sender has not sent any weather packets the latest 10 day(s).
| Time | Temp. | Humidity | Pressure | Rain* | Wind** | Luminosity | Snow |
|---|---|---|---|---|---|---|---|
| 1777545306 | 15.56° C | 70% | 1008.7 hPa | 0 mm | 4.47 m/s, 173° | - | - |
| 1777544702 | 15.56° C | 72% | 1008.6 hPa | 0 mm | 4.02 m/s, 176° | - | - |
| 1777544402 | 15.56° C | 72% | 1008.4 hPa | 0 mm | 4.47 m/s, 177° | - | - |
| 1777542902 | 16.11° C | 67% | 1008.9 hPa | 0 mm | 4.47 m/s, 173° | - | - |
| 1777542602 | 16.11° C | 66% | 1009 hPa | 0 mm | 4.47 m/s, 167° | - | - |
| 1777542302 | 16.11° C | 65% | 1009.1 hPa | 0 mm | 4.47 m/s, 169° | - | - |
| 1777542002 | 16.67° C | 65% | 1009.2 hPa | 0 mm | 4.92 m/s, 172° | - | - |
| 1777540502 | 16.67° C | 67% | 1009.1 hPa | 0 mm | 2.68 m/s, 160° | - | - |
| 1777540202 | 16.67° C | 68% | 1009.2 hPa | 0 mm | 3.58 m/s, 175° | - | - |
| 1777539902 | 16.67° C | 70% | 1009.2 hPa | 0 mm | 3.13 m/s, 162° | - | - |
| 1777539602 | 16.67° C | 71% | 1009.2 hPa | 0 mm | 4.02 m/s, 162° | - | - |
| 1777538402 | 17.22° C | 74% | 1009.2 hPa | 0 mm | 4.02 m/s, 172° | - | - |
| 1777538102 | 17.22° C | 73% | 1009 hPa | 0 mm | 4.47 m/s, 175° | - | - |
| 1777537202 | 17.22° C | 72% | 1008.8 hPa | 0 mm | 3.58 m/s, 176° | - | - |
| 1777536902 | 17.22° C | 72% | 1008.6 hPa | 0 mm | 4.02 m/s, 173° | - | - |
| 1777536002 | 17.78° C | 71% | 1008.1 hPa | 0 mm | 3.58 m/s, 166° | - | - |
| 1777535702 | 17.78° C | 73% | 1008 hPa | 0 mm | 3.58 m/s, 169° | - | - |
| 1777534802 | 17.78° C | 72% | 1008 hPa | 0 mm | 4.47 m/s, 173° | - | - |
| 1777534502 | 17.78° C | 73% | 1007.8 hPa | 0 mm | 3.58 m/s, 170° | - | - |
| 1777533602 | 17.78° C | 74% | 1007.9 hPa | 0 mm | 4.02 m/s, 163° | - | - |
| 1777533302 | 17.78° C | 75% | 1007.7 hPa | 0 mm | 3.58 m/s, 166° | - | - |
| 1777532702 | 17.78° C | 77% | 1007.7 hPa | 0 mm | 3.58 m/s, 169° | - | - |
| 1777532402 | 17.78° C | 77% | 1007.5 hPa | 0 mm | 4.02 m/s, 175° | - | - |
| 1777531803 | 17.78° C | 76% | 1007.8 hPa | 0 mm | 3.58 m/s, 174° | - | - |
| 1777531502 | 17.78° C | 76% | 1007.8 hPa | 0 mm | 3.58 m/s, 174° | - | - |
* Rain latest hour (hover to see other rain measurements)
** Current wind speed in m/s (hover to see current wind gust speed)